Latest Coastal Weather Observations for Hogan Island

IDT60701

Issued at 8:45 pm EDT Monday 20 October 2014 (issued every 10 minutes, with the page automatically refreshed every 10 minutes)

About coastal observations | Map of coastal stations | Coastal observations for TAS | Marine services | Other Formats
Station Details ID: 200838 Name: HOGAN ISLAND Lat: -39.22 Lon: 146.98 Height: 116.0 m
Data from the previous 72 hours. | See also: Recent months at Hogan Island
Date/Time
EDT
Temp

°C
Wind Pressure Rain
since 9am
mm
Weather Cloud Vis
km
Sea
Height
m
Swell
Dir
 
Speed
knots
Gust
knots
hPa Trend Height
m
Period
s
Dir
20/08:30pm 11.3 E 28 32 1031.8 - 0.0 - - - - - - -
20/08:00pm 11.3 E 27 32 1031.6 - 0.0 - - - - - - -
20/07:30pm 11.1 E 25 31 1031.7 - 0.0 - - - - - - -
20/07:00pm 11.4 E 26 31 1031.5 - 0.0 - - - - - - -
20/06:30pm 11.7 E 26 31 1031.4 - 0.0 - - - - - - -
20/06:00pm 12.1 E 26 30 1031.4 - 0.0 - - - - - - -
20/05:30pm 12.5 E 24 29 1031.4 - 0.0 - - - - - - -
20/05:00pm 13.0 E 24 28 1031.4 - 0.0 - - - - - - -
20/04:30pm 13.3 E 24 29 1031.3 - 0.0 - - - - - - -
20/04:00pm 13.8 E 24 27 1031.4 - 0.0 - - - - - - -
20/03:30pm 13.8 E 24 28 1031.6 - 0.0 - - - - - - -
20/03:00pm 14.2 E 24 27 1031.8 - 0.0 - - - - - - -
20/02:30pm 14.0 E 24 28 1031.9 - 0.0 - - - - - - -
20/02:00pm 14.2 E 23 26 1032.1 - 0.0 - - - - - - -
20/01:30pm 14.3 E 23 26 1032.2 - 0.0 - - - - - - -
20/01:00pm 14.2 E 23 26 1032.2 - 0.0 - - - - - - -
20/12:30pm 14.3 E 23 27 1032.3 - 0.0 - - - - - - -
20/12:00pm 14.1 E 22 26 1032.5 - 0.0 - - - - - - -
20/11:30am 13.6 E 22 25 1032.6 - 0.0 - - - - - - -
20/11:00am 13.4 E 22 25 1032.9 - 0.0 - - - - - - -
20/10:30am 13.0 ESE 22 25 1032.8 - 0.0 - - - - - - -
20/10:00am 12.6 ESE 22 26 1032.7 - 0.0 - - - - - - -
20/09:30am 12.3 ESE 22 25 1032.3 - 0.0 - - - - - - -
20/09:00am 12.6 E 22 26 1031.9 - 0.0 - - - - - - -
20/08:30am 11.4 ESE 15 18 1031.7 - 0.0 - - - - - - -
20/08:00am 11.8 SE 15 18 1031.6 - 0.0 - - - - - - -
20/07:30am 11.0 SE 15 18 1031.2 - 0.0 - - - - - - -
20/07:00am 10.0 SE 17 21 1030.5 - 0.0 - - - - - - -
20/06:30am 9.6 SE 19 22 1030.2 - 0.0 - - - - - - -
20/06:00am 9.9 SE 17 21 1030.0 - 0.0 - - - - - - -
20/05:30am 9.5 SSE 14 17 1029.6 - 0.0 - - - - - - -
20/05:00am 9.6 SSE 14 18 1029.2 - 0.0 - - - - - - -
20/04:30am 9.5 S 15 19 1029.0 - 0.0 - - - - - - -
20/04:00am 9.6 SSW 14 19 1029.0 - 0.0 - - - - - - -
20/03:30am 9.8 SW 19 26 1028.9 - 0.0 - - - - - - -
20/03:10am 10.2 SSW 17 27 1028.5 - 0.0 - - - - - - -
20/03:00am 10.1 SW 17 25 1028.6 - 0.0 - - - - - - -
20/02:30am 10.3 SW 23 26 1028.5 - 0.0 - - - - - - -
20/02:00am 10.3 SW 23 26 1028.1 - 0.0 - - - - - - -
20/01:30am 10.5 SW 25 29 1027.8 - 0.0 - - - - - - -
20/01:00am 10.4 SW 29 33 1027.6 - 0.0 - - - - - - -
20/12:30am 10.5 SW 30 34 1027.1 - 0.0 - - - - - - -
20/12:00am 10.6 SW 31 36 1026.6 - 0.0 - - - - - - -
 
Date/Time
EDT
Temp

°C
Wind Pressure Rain
since 9am
mm
Weather Cloud Vis
km
Sea
Height
m
Swell
Dir
 
Speed
knots
Gust
knots
hPa Trend Height
m
Period
s
Dir
19/11:30pm 10.8 SW 33 37 1026.1 - 0.0 - - - - - - -
19/11:00pm 11.2 SW 35 41 1026.1 - 0.0 - - - - - - -
19/10:41pm 11.3 SW 28 38 1025.7 - 0.0 - - - - - - -
19/10:30pm 11.4 SW 28 35 1025.7 - 0.0 - - - - - - -
19/10:00pm 11.8 SW 30 36 1025.5 - 0.0 - - - - - - -
19/09:30pm 11.9 SW 26 32 1024.7 - 0.0 - - - - - - -
19/09:00pm 12.2 WSW 24 29 1023.9 - 0.0 - - - - - - -
19/08:30pm 12.4 SW 31 37 1023.1 - 0.0 - - - - - - -
19/08:00pm 12.6 WSW 27 35 1022.0 - 0.0 - - - - - - -
19/07:30pm 12.8 WSW 29 35 1021.1 - 0.0 - - - - - - -
19/07:00pm 13.3 WSW 29 34 1020.5 - 0.0 - - - - - - -
19/06:30pm 13.5 WSW 29 33 1019.9 - 0.0 - - - - - - -
19/06:00pm 13.9 WSW 25 28 1019.9 - 0.0 - - - - - - -
19/05:30pm 15.3 WSW 20 24 1019.2 - 0.0 - - - - - - -
19/05:00pm 15.3 WSW 21 26 1018.8 - 0.0 - - - - - - -
19/04:30pm 14.2 WSW 17 20 1018.1 - 0.0 - - - - - - -
19/04:00pm 16.3 SW 17 21 1018.5 - 0.0 - - - - - - -
19/03:30pm 17.0 SW 17 23 1018.3 - 0.0 - - - - - - -
19/03:00pm 17.4 SW 16 19 1018.3 - 0.0 - - - - - - -
19/02:30pm 16.3 SW 10 13 1018.5 - 0.0 - - - - - - -
19/02:00pm 15.5 WSW 13 16 1018.1 - 0.0 - - - - - - -
19/01:30pm 18.5 SW 12 14 1018.7 - 0.0 - - - - - - -
19/01:00pm 16.8 WSW 14 16 1018.6 - 0.0 - - - - - - -
19/12:30pm 15.7 WSW 20 23 1018.8 - 0.0 - - - - - - -
19/12:00pm 16.1 WSW 14 18 1019.2 - 0.0 - - - - - - -
19/11:30am 16.8 W 16 18 1018.6 - 0.0 - - - - - - -
19/11:00am 16.2 W 16 19 1019.0 - 0.0 - - - - - - -
19/10:30am 16.3 W 19 23 1019.2 - 0.0 - - - - - - -
19/10:00am 16.1 W 21 25 1019.2 - 0.0 - - - - - - -
19/09:30am 16.5 W 19 22 1019.2 - 0.0 - - - - - - -
19/09:00am 16.7 W 20 22 1019.7 - 0.0 - - - - - - -
19/08:30am 15.8 W 17 19 1019.6 - 0.0 - - - - - - -
19/08:00am 15.4 WSW 12 13 1019.5 - 0.0 - - - - - - -
19/07:30am 15.2 W 11 16 1019.1 - 0.0 - - - - - - -
19/07:00am 14.3 WNW 12 17 1018.7 - 0.0 - - - - - - -
19/06:30am 16.2 NNW 18 22 1018.2 - 0.0 - - - - - - -
19/06:00am 16.5 N 18 23 1018.0 - 0.0 - - - - - - -
19/05:30am 16.6 N 17 24 1018.0 - 0.0 - - - - - - -
19/05:00am 17.0 N 16 23 1018.0 - 0.0 - - - - - - -
19/04:30am 15.6 N 20 26 1018.3 - 0.0 - - - - - - -
19/04:00am 14.7 N 22 28 1018.5 - 0.0 - - - - - - -
19/03:30am 14.7 N 23 28 1018.9 - 0.0 - - - - - - -
19/03:00am 14.7 N 24 29 1019.3 - 0.0 - - - - - - -
19/02:30am 14.7 N 25 29 1019.4 - 0.0 - - - - - - -
19/02:00am 14.8 N 25 29 1019.6 - 0.0 - - - - - - -
19/01:30am 14.6 N 28 33 1019.6 - 0.0 - - - - - - -
19/01:00am 14.2 N 30 36 1019.5 - 0.0 - - - - - - -
19/12:30am 13.5 N 26 30 1020.8 - 0.0 - - - - - - -
19/12:00am 13.3 NNE 23 27 1021.9 - 0.0 - - - - - - -
 
Date/Time
EDT
Temp

°C
Wind Pressure Rain
since 9am
mm
Weather Cloud Vis
km
Sea
Height
m
Swell
Dir
 
Speed
knots
Gust
knots
hPa Trend Height
m
Period
s
Dir
18/11:30pm 13.2 NNE 20 23 1022.5 - 0.0 - - - - - - -
18/11:00pm 12.9 NNE 18 21 1022.9 - 0.0 - - - - - - -
18/10:30pm 12.9 NNE 15 18 1023.4 - 0.0 - - - - - - -
18/10:00pm 12.8 NNE 14 15 1023.8 - 0.0 - - - - - - -
18/09:30pm 12.9 NNE 13 15 1024.1 - 0.0 - - - - - - -
18/09:00pm 12.8 NNE 13 14 1024.0 - 0.0 - - - - - - -
18/08:30pm 12.6 NNE 11 13 1023.9 - 0.0 - - - - - - -
18/08:00pm 12.7 NE 9 11 1023.8 - 0.0 - - - - - - -
18/07:30pm 12.4 NE 9 11 1023.5 - 0.0 - - - - - - -
18/07:00pm 13.2 NE 9 11 1023.4 - 0.0 - - - - - - -
18/06:30pm 13.2 ENE 10 11 1023.2 - 0.0 - - - - - - -
18/06:00pm 13.4 ENE 13 15 1022.9 - 0.0 - - - - - - -
18/05:30pm 13.3 ENE 16 18 1022.3 - 0.0 - - - - - - -
18/05:00pm 13.5 NE 12 13 1023.0 - 0.0 - - - - - - -
18/04:30pm 14.7 ENE 11 14 1023.0 - 0.0 - - - - - - -
18/04:00pm 14.6 ENE 11 14 1023.3 - 0.0 - - - - - - -
18/03:30pm 14.2 ENE 12 15 1023.5 - 0.0 - - - - - - -
18/03:00pm 14.6 ENE 13 16 1023.8 - 0.0 - - - - - - -
18/02:30pm 14.9 ENE 13 15 1024.3 - 0.0 - - - - - - -
18/02:00pm 16.1 ENE 14 17 1024.7 - 0.0 - - - - - - -
18/01:30pm 16.1 ENE 15 18 1024.9 - 0.0 - - - - - - -
18/01:00pm 16.4 NE 15 17 1025.0 - 0.0 - - - - - - -
18/12:30pm 15.9 ENE 14 16 1025.4 - 0.0 - - - - - - -
18/12:00pm 16.1 NE 13 15 1026.3 - 0.0 - - - - - - -
18/11:30am 15.7 NE 13 16 1026.4 - 0.0 - - - - - - -
18/11:00am 16.0 NE 13 17 1026.8 - 0.0 - - - - - - -
18/10:30am 15.9 NE 15 18 1026.7 - 0.0 - - - - - - -
18/10:00am 15.3 NE 17 20 1026.9 - 0.0 - - - - - - -
18/09:30am 15.2 NE 17 21 1027.1 - 0.0 - - - - - - -
18/09:00am 14.3 NE 18 21 1027.2 - 0.0 - - - - - - -
18/08:30am 14.0 NE 17 20 1027.0 - 0.0 - - - - - - -
18/08:00am 13.5 NE 18 20 1027.0 - 0.0 - - - - - - -
18/07:30am 12.7 NE 16 19 1027.2 - 0.0 - - - - - - -
18/07:00am 12.0 NE 16 19 1026.9 - 0.0 - - - - - - -
18/06:30am 11.3 NE 19 22 1026.1 - 0.0 - - - - - - -
18/06:00am 11.2 NE 17 21 1026.0 - 0.0 - - - - - - -
18/05:30am 11.2 NE 17 20 1025.8 - 0.0 - - - - - - -
18/05:00am 11.1 NE 17 21 1025.9 - 0.0 - - - - - - -
18/04:30am 11.2 NE 17 21 1025.9 - 0.0 - - - - - - -
18/04:00am 11.3 NE 20 22 1026.1 - 0.0 - - - - - - -
18/03:30am 11.4 NE 20 23 1025.9 - 0.0 - - - - - - -
18/03:00am 11.1 NE 19 22 1026.3 - 0.0 - - - - - - -
18/02:30am 11.3 NE 18 22 1026.5 - 0.0 - - - - - - -
18/02:00am 11.5 NE 18 22 1026.8 - 0.0 - - - - - - -
18/01:30am 11.5 NE 19 23 1027.1 - 0.0 - - - - - - -
18/01:00am 11.3 NE 18 23 1027.2 - 0.0 - - - - - - -
18/12:30am 11.4 NE 20 23 1027.2 - 0.0 - - - - - - -
18/12:00am 11.4 NE 18 21 1027.6 - 0.0 - - - - - - -
 
Date/Time
EDT
Temp

°C
Wind Pressure Rain
since 9am
mm
Weather Cloud Vis
km
Sea
Height
m
Swell
Dir
 
Speed
knots
Gust
knots
hPa Trend Height
m
Period
s
Dir
17/11:30pm 11.4 NE 17 21 1027.8 - 0.0 - - - - - - -
17/11:00pm 11.4 NE 17 20 1027.8 - 0.0 - - - - - - -
17/10:30pm 11.9 NE 18 21 1028.0 - 0.0 - - - - - - -
17/10:00pm 11.8 NE 17 20 1028.0 - 0.0 - - - - - - -
17/09:30pm 11.6 NE 19 21 1027.8 - 0.0 - - - - - - -
17/09:00pm 11.5 ENE 19 23 1027.7 - 0.0 - - - - - - -

Other Formats:

Comma delimited format used in spreadsheet applications
http://www.bom.gov.au/fwo/IDT60701/IDT60701.94949.axf

JavaScript Object Notation format (JSON) in row-major order
http://www.bom.gov.au/fwo/IDT60701/IDT60701.94949.json